sensor_id;sensor_type;location;lat;lon;timestamp;P1;durP1;ratioP1;P2;durP2;ratioP2
11121;SDS011;5615;49.304;10.576;2022-08-19T00:00:30;24.60;;;22.23;;
11121;SDS011;5615;49.304;10.576;2022-08-19T00:02:57;23.65;;;21.33;;
11121;SDS011;5615;49.304;10.576;2022-08-19T00:05:23;25.25;;;22.85;;
11121;SDS011;5615;49.304;10.576;2022-08-19T00:07:51;24.75;;;22.25;;
11121;SDS011;5615;49.304;10.576;2022-08-19T00:10:18;25.73;;;23.17;;
11121;SDS011;5615;49.304;10.576;2022-08-19T00:12:45;25.88;;;23.27;;
11121;SDS011;5615;49.304;10.576;2022-08-19T00:15:15;29.08;;;24.90;;
11121;SDS011;5615;49.304;10.576;2022-08-19T00:17:44;28.27;;;25.17;;
11121;SDS011;5615;49.304;10.576;2022-08-19T00:20:13;28.77;;;25.88;;
11121;SDS011;5615;49.304;10.576;2022-08-19T00:22:42;28.17;;;25.38;;
11121;SDS011;5615;49.304;10.576;2022-08-19T00:25:11;27.67;;;24.88;;
11121;SDS011;5615;49.304;10.576;2022-08-19T00:27:38;27.63;;;24.85;;
11121;SDS011;5615;49.304;10.576;2022-08-19T00:30:05;29.50;;;26.48;;
11121;SDS011;5615;49.304;10.576;2022-08-19T00:32:35;29.05;;;26.25;;
11121;SDS011;5615;49.304;10.576;2022-08-19T00:35:01;30.52;;;27.33;;
11121;SDS011;5615;49.304;10.576;2022-08-19T00:37:28;30.00;;;26.90;;
11121;SDS011;5615;49.304;10.576;2022-08-19T00:39:55;29.55;;;26.45;;
11121;SDS011;5615;49.304;10.576;2022-08-19T00:42:23;29.17;;;26.17;;
11121;SDS011;5615;49.304;10.576;2022-08-19T00:44:53;29.90;;;26.80;;
11121;SDS011;5615;49.304;10.576;2022-08-19T00:47:20;31.00;;;27.85;;
11121;SDS011;5615;49.304;10.576;2022-08-19T00:49:47;29.42;;;26.42;;
11121;SDS011;5615;49.304;10.576;2022-08-19T00:52:17;29.98;;;26.70;;
11121;SDS011;5615;49.304;10.576;2022-08-19T00:54:47;28.80;;;25.83;;
11121;SDS011;5615;49.304;10.576;2022-08-19T00:57:15;31.02;;;27.88;;
11121;SDS011;5615;49.304;10.576;2022-08-19T00:59:47;30.73;;;27.67;;
11121;SDS011;5615;49.304;10.576;2022-08-19T01:02:17;29.85;;;26.85;;
11121;SDS011;5615;49.304;10.576;2022-08-19T01:04:44;30.40;;;26.55;;
11121;SDS011;5615;49.304;10.576;2022-08-19T01:07:11;30.75;;;27.45;;
11121;SDS011;5615;49.304;10.576;2022-08-19T01:09:38;29.85;;;26.83;;
11121;SDS011;5615;49.304;10.576;2022-08-19T01:12:05;30.08;;;26.88;;
11121;SDS011;5615;49.304;10.576;2022-08-19T01:14:32;32.60;;;27.83;;
11121;SDS011;5615;49.304;10.576;2022-08-19T01:17:01;30.33;;;27.13;;
11121;SDS011;5615;49.304;10.576;2022-08-19T01:19:29;30.35;;;26.90;;
11121;SDS011;5615;49.304;10.576;2022-08-19T01:22:01;29.95;;;26.95;;
11121;SDS011;5615;49.304;10.576;2022-08-19T01:24:33;29.02;;;25.92;;
11121;SDS011;5615;49.304;10.576;2022-08-19T01:26:59;29.85;;;26.73;;
11121;SDS011;5615;49.304;10.576;2022-08-19T01:29:30;32.17;;;28.67;;
11121;SDS011;5615;49.304;10.576;2022-08-19T01:31:57;30.77;;;27.58;;
11121;SDS011;5615;49.304;10.576;2022-08-19T01:34:24;30.63;;;27.42;;
11121;SDS011;5615;49.304;10.576;2022-08-19T01:36:50;30.83;;;27.52;;
11121;SDS011;5615;49.304;10.576;2022-08-19T01:39:18;29.60;;;26.48;;
11121;SDS011;5615;49.304;10.576;2022-08-19T01:41:48;29.83;;;26.50;;
11121;SDS011;5615;49.304;10.576;2022-08-19T01:44:15;29.90;;;26.77;;
11121;SDS011;5615;49.304;10.576;2022-08-19T01:46:46;32.15;;;27.65;;
11121;SDS011;5615;49.304;10.576;2022-08-19T01:49:14;30.13;;;27.08;;
11121;SDS011;5615;49.304;10.576;2022-08-19T01:51:42;30.83;;;27.73;;
11121;SDS011;5615;49.304;10.576;2022-08-19T01:54:09;30.75;;;27.50;;
11121;SDS011;5615;49.304;10.576;2022-08-19T01:56:37;30.23;;;27.00;;
11121;SDS011;5615;49.304;10.576;2022-08-19T01:59:10;32.00;;;28.80;;
11121;SDS011;5615;49.304;10.576;2022-08-19T02:01:40;30.27;;;27.08;;
11121;SDS011;5615;49.304;10.576;2022-08-19T02:04:07;30.25;;;27.10;;
11121;SDS011;5615;49.304;10.576;2022-08-19T02:06:34;30.73;;;27.48;;
11121;SDS011;5615;49.304;10.576;2022-08-19T02:09:02;32.58;;;29.20;;
11121;SDS011;5615;49.304;10.576;2022-08-19T02:11:30;31.38;;;27.98;;
11121;SDS011;5615;49.304;10.576;2022-08-19T02:13:58;32.25;;;28.27;;
11121;SDS011;5615;49.304;10.576;2022-08-19T02:16:28;31.42;;;28.08;;
11121;SDS011;5615;49.304;10.576;2022-08-19T02:18:56;31.42;;;27.98;;
11121;SDS011;5615;49.304;10.576;2022-08-19T02:21:25;32.22;;;28.83;;
11121;SDS011;5615;49.304;10.576;2022-08-19T02:23:53;34.10;;;28.90;;
11121;SDS011;5615;49.304;10.576;2022-08-19T02:26:20;33.45;;;28.67;;
11121;SDS011;5615;49.304;10.576;2022-08-19T02:28:47;30.67;;;27.38;;
11121;SDS011;5615;49.304;10.576;2022-08-19T02:31:15;34.08;;;28.08;;
11121;SDS011;5615;49.304;10.576;2022-08-19T02:33:45;33.47;;;29.55;;
11121;SDS011;5615;49.304;10.576;2022-08-19T02:36:12;34.05;;;28.40;;
11121;SDS011;5615;49.304;10.576;2022-08-19T02:38:41;32.95;;;28.38;;
11121;SDS011;5615;49.304;10.576;2022-08-19T02:41:11;33.50;;;29.80;;
11121;SDS011;5615;49.304;10.576;2022-08-19T02:43:39;34.50;;;28.98;;
11121;SDS011;5615;49.304;10.576;2022-08-19T02:46:11;34.47;;;29.85;;
11121;SDS011;5615;49.304;10.576;2022-08-19T02:48:38;32.00;;;28.38;;
11121;SDS011;5615;49.304;10.576;2022-08-19T02:51:06;32.20;;;28.58;;
11121;SDS011;5615;49.304;10.576;2022-08-19T02:53:33;32.30;;;28.23;;
11121;SDS011;5615;49.304;10.576;2022-08-19T02:56:00;34.28;;;29.25;;
11121;SDS011;5615;49.304;10.576;2022-08-19T02:58:26;33.15;;;28.98;;
11121;SDS011;5615;49.304;10.576;2022-08-19T03:00:54;31.15;;;27.85;;
11121;SDS011;5615;49.304;10.576;2022-08-19T03:03:22;32.67;;;29.17;;
11121;SDS011;5615;49.304;10.576;2022-08-19T03:05:49;31.35;;;27.95;;
11121;SDS011;5615;49.304;10.576;2022-08-19T03:08:17;34.35;;;29.08;;
11121;SDS011;5615;49.304;10.576;2022-08-19T03:10:45;33.53;;;28.73;;
11121;SDS011;5615;49.304;10.576;2022-08-19T03:13:13;32.30;;;28.88;;
11121;SDS011;5615;49.304;10.576;2022-08-19T03:15:42;32.63;;;27.63;;
11121;SDS011;5615;49.304;10.576;2022-08-19T03:18:09;33.63;;;28.17;;
11121;SDS011;5615;49.304;10.576;2022-08-19T03:20:40;34.92;;;29.02;;
11121;SDS011;5615;49.304;10.576;2022-08-19T03:25:38;31.38;;;27.98;;
11121;SDS011;5615;49.304;10.576;2022-08-19T03:28:05;32.80;;;28.10;;
11121;SDS011;5615;49.304;10.576;2022-08-19T03:30:33;32.53;;;27.45;;
11121;SDS011;5615;49.304;10.576;2022-08-19T03:32:59;34.00;;;27.92;;
11121;SDS011;5615;49.304;10.576;2022-08-19T03:35:26;32.30;;;28.08;;
11121;SDS011;5615;49.304;10.576;2022-08-19T03:37:53;31.45;;;27.75;;
11121;SDS011;5615;49.304;10.576;2022-08-19T03:40:21;33.67;;;28.17;;
11121;SDS011;5615;49.304;10.576;2022-08-19T03:42:49;31.63;;;27.90;;
11121;SDS011;5615;49.304;10.576;2022-08-19T03:45:16;33.47;;;28.58;;
11121;SDS011;5615;49.304;10.576;2022-08-19T03:47:42;33.00;;;27.88;;
11121;SDS011;5615;49.304;10.576;2022-08-19T03:50:10;31.63;;;27.30;;
11121;SDS011;5615;49.304;10.576;2022-08-19T03:52:36;31.85;;;26.88;;
11121;SDS011;5615;49.304;10.576;2022-08-19T03:55:04;34.20;;;27.52;;
11121;SDS011;5615;49.304;10.576;2022-08-19T03:57:32;31.13;;;27.40;;
11121;SDS011;5615;49.304;10.576;2022-08-19T04:00:00;31.85;;;27.15;;
11121;SDS011;5615;49.304;10.576;2022-08-19T04:02:30;32.28;;;28.05;;
11121;SDS011;5615;49.304;10.576;2022-08-19T04:04:56;32.10;;;28.15;;
11121;SDS011;5615;49.304;10.576;2022-08-19T04:07:23;30.35;;;26.85;;
11121;SDS011;5615;49.304;10.576;2022-08-19T04:09:50;34.22;;;29.40;;
11121;SDS011;5615;49.304;10.576;2022-08-19T04:12:18;33.83;;;28.42;;
11121;SDS011;5615;49.304;10.576;2022-08-19T04:14:45;32.58;;;28.25;;
11121;SDS011;5615;49.304;10.576;2022-08-19T04:17:13;32.03;;;27.80;;
11121;SDS011;5615;49.304;10.576;2022-08-19T04:19:40;31.83;;;28.05;;
11121;SDS011;5615;49.304;10.576;2022-08-19T04:22:08;32.25;;;27.48;;
11121;SDS011;5615;49.304;10.576;2022-08-19T04:24:35;33.78;;;29.05;;
11121;SDS011;5615;49.304;10.576;2022-08-19T04:27:02;31.52;;;27.85;;
11121;SDS011;5615;49.304;10.576;2022-08-19T04:29:30;34.20;;;28.90;;
11121;SDS011;5615;49.304;10.576;2022-08-19T04:31:57;34.20;;;29.08;;
11121;SDS011;5615;49.304;10.576;2022-08-19T04:34:26;34.90;;;29.10;;
11121;SDS011;5615;49.304;10.576;2022-08-19T04:36:55;31.88;;;28.45;;
11121;SDS011;5615;49.304;10.576;2022-08-19T04:39:25;34.67;;;28.33;;
11121;SDS011;5615;49.304;10.576;2022-08-19T04:42:14;32.05;;;28.55;;
11121;SDS011;5615;49.304;10.576;2022-08-19T04:44:59;36.83;;;29.27;;
11121;SDS011;5615;49.304;10.576;2022-08-19T04:47:27;33.75;;;30.08;;
11121;SDS011;5615;49.304;10.576;2022-08-19T04:49:55;33.45;;;29.45;;
11121;SDS011;5615;49.304;10.576;2022-08-19T04:52:22;33.10;;;28.95;;
11121;SDS011;5615;49.304;10.576;2022-08-19T04:54:49;36.03;;;30.05;;
11121;SDS011;5615;49.304;10.576;2022-08-19T04:57:15;34.42;;;29.52;;
11121;SDS011;5615;49.304;10.576;2022-08-19T04:59:42;36.63;;;30.15;;
11121;SDS011;5615;49.304;10.576;2022-08-19T05:02:09;34.75;;;29.52;;
11121;SDS011;5615;49.304;10.576;2022-08-19T05:04:36;35.45;;;31.20;;
11121;SDS011;5615;49.304;10.576;2022-08-19T05:07:05;32.65;;;28.95;;
11121;SDS011;5615;49.304;10.576;2022-08-19T05:09:32;35.33;;;29.95;;
11121;SDS011;5615;49.304;10.576;2022-08-19T05:12:00;33.63;;;29.13;;
11121;SDS011;5615;49.304;10.576;2022-08-19T05:14:26;31.30;;;27.23;;
11121;SDS011;5615;49.304;10.576;2022-08-19T05:16:54;32.67;;;28.75;;
11121;SDS011;5615;49.304;10.576;2022-08-19T05:19:20;32.85;;;27.40;;
11121;SDS011;5615;49.304;10.576;2022-08-19T05:22:06;34.58;;;29.45;;
11121;SDS011;5615;49.304;10.576;2022-08-19T05:24:50;32.00;;;28.10;;
11121;SDS011;5615;49.304;10.576;2022-08-19T05:27:17;32.38;;;27.50;;
11121;SDS011;5615;49.304;10.576;2022-08-19T05:29:43;32.08;;;28.17;;
11121;SDS011;5615;49.304;10.576;2022-08-19T05:32:10;32.30;;;27.65;;
11121;SDS011;5615;49.304;10.576;2022-08-19T05:34:37;32.50;;;29.00;;
11121;SDS011;5615;49.304;10.576;2022-08-19T05:37:04;31.05;;;27.55;;
11121;SDS011;5615;49.304;10.576;2022-08-19T05:39:34;32.38;;;28.92;;
11121;SDS011;5615;49.304;10.576;2022-08-19T05:42:03;31.45;;;28.15;;
11121;SDS011;5615;49.304;10.576;2022-08-19T05:44:32;30.58;;;27.27;;
11121;SDS011;5615;49.304;10.576;2022-08-19T05:47:00;32.47;;;28.63;;
11121;SDS011;5615;49.304;10.576;2022-08-19T05:49:30;34.40;;;27.85;;
11121;SDS011;5615;49.304;10.576;2022-08-19T05:51:57;31.75;;;27.58;;
11121;SDS011;5615;49.304;10.576;2022-08-19T05:54:24;31.90;;;28.30;;
11121;SDS011;5615;49.304;10.576;2022-08-19T05:56:53;32.03;;;28.35;;
11121;SDS011;5615;49.304;10.576;2022-08-19T05:59:20;32.35;;;27.02;;
11121;SDS011;5615;49.304;10.576;2022-08-19T06:01:48;31.77;;;27.88;;
11121;SDS011;5615;49.304;10.576;2022-08-19T06:04:17;31.63;;;28.23;;
11121;SDS011;5615;49.304;10.576;2022-08-19T06:06:45;34.25;;;28.90;;
11121;SDS011;5615;49.304;10.576;2022-08-19T06:09:12;34.67;;;28.45;;
11121;SDS011;5615;49.304;10.576;2022-08-19T06:11:40;31.50;;;28.08;;
11121;SDS011;5615;49.304;10.576;2022-08-19T06:14:12;34.63;;;29.90;;
11121;SDS011;5615;49.304;10.576;2022-08-19T06:16:41;30.90;;;27.65;;
11121;SDS011;5615;49.304;10.576;2022-08-19T06:19:09;31.50;;;28.13;;
11121;SDS011;5615;49.304;10.576;2022-08-19T06:21:38;31.05;;;27.50;;
11121;SDS011;5615;49.304;10.576;2022-08-19T06:24:06;31.98;;;28.15;;
11121;SDS011;5615;49.304;10.576;2022-08-19T06:26:35;29.17;;;26.17;;
11121;SDS011;5615;49.304;10.576;2022-08-19T06:29:04;30.55;;;27.15;;
11121;SDS011;5615;49.304;10.576;2022-08-19T06:31:34;30.45;;;26.77;;
11121;SDS011;5615;49.304;10.576;2022-08-19T06:34:02;33.80;;;26.95;;
11121;SDS011;5615;49.304;10.576;2022-08-19T06:36:32;30.40;;;26.73;;
11121;SDS011;5615;49.304;10.576;2022-08-19T06:39:00;31.23;;;27.23;;
11121;SDS011;5615;49.304;10.576;2022-08-19T06:41:28;29.45;;;25.27;;
11121;SDS011;5615;49.304;10.576;2022-08-19T06:43:56;30.55;;;26.60;;
11121;SDS011;5615;49.304;10.576;2022-08-19T06:46:23;29.80;;;26.60;;
11121;SDS011;5615;49.304;10.576;2022-08-19T06:48:51;28.88;;;25.77;;
11121;SDS011;5615;49.304;10.576;2022-08-19T06:51:20;28.27;;;25.20;;
11121;SDS011;5615;49.304;10.576;2022-08-19T06:53:49;29.17;;;25.98;;
11121;SDS011;5615;49.304;10.576;2022-08-19T06:56:18;27.77;;;24.83;;
11121;SDS011;5615;49.304;10.576;2022-08-19T06:58:47;27.30;;;24.52;;
11121;SDS011;5615;49.304;10.576;2022-08-19T07:01:16;26.92;;;24.02;;
11121;SDS011;5615;49.304;10.576;2022-08-19T07:03:42;27.38;;;24.52;;
11121;SDS011;5615;49.304;10.576;2022-08-19T07:06:13;28.75;;;25.48;;
11121;SDS011;5615;49.304;10.576;2022-08-19T07:08:42;27.08;;;24.38;;
11121;SDS011;5615;49.304;10.576;2022-08-19T07:11:11;27.48;;;24.42;;
11121;SDS011;5615;49.304;10.576;2022-08-19T07:13:39;27.30;;;24.40;;
11121;SDS011;5615;49.304;10.576;2022-08-19T07:16:09;27.75;;;24.75;;
11121;SDS011;5615;49.304;10.576;2022-08-19T07:18:37;28.50;;;24.95;;
11121;SDS011;5615;49.304;10.576;2022-08-19T07:21:05;28.83;;;25.83;;
11121;SDS011;5615;49.304;10.576;2022-08-19T07:23:34;31.15;;;25.42;;
11121;SDS011;5615;49.304;10.576;2022-08-19T07:26:04;29.45;;;25.33;;
11121;SDS011;5615;49.304;10.576;2022-08-19T07:28:31;26.85;;;24.00;;
11121;SDS011;5615;49.304;10.576;2022-08-19T07:30:58;28.48;;;24.02;;
11121;SDS011;5615;49.304;10.576;2022-08-19T07:33:26;27.80;;;24.65;;
11121;SDS011;5615;49.304;10.576;2022-08-19T07:35:55;26.40;;;23.63;;
11121;SDS011;5615;49.304;10.576;2022-08-19T07:38:21;26.48;;;23.30;;
11121;SDS011;5615;49.304;10.576;2022-08-19T07:40:49;25.88;;;23.23;;
11121;SDS011;5615;49.304;10.576;2022-08-19T07:43:16;24.55;;;21.95;;
11121;SDS011;5615;49.304;10.576;2022-08-19T07:45:45;25.48;;;22.65;;
11121;SDS011;5615;49.304;10.576;2022-08-19T07:48:12;25.27;;;22.63;;
11121;SDS011;5615;49.304;10.576;2022-08-19T07:50:39;24.13;;;21.50;;
11121;SDS011;5615;49.304;10.576;2022-08-19T07:53:06;24.40;;;21.92;;
11121;SDS011;5615;49.304;10.576;2022-08-19T07:55:33;24.60;;;22.08;;
11121;SDS011;5615;49.304;10.576;2022-08-19T07:58:01;24.38;;;21.75;;
11121;SDS011;5615;49.304;10.576;2022-08-19T08:00:29;23.55;;;21.15;;
11121;SDS011;5615;49.304;10.576;2022-08-19T08:02:56;23.02;;;20.65;;
11121;SDS011;5615;49.304;10.576;2022-08-19T08:05:23;22.77;;;20.42;;
11121;SDS011;5615;49.304;10.576;2022-08-19T08:08:07;24.35;;;21.58;;
11121;SDS011;5615;49.304;10.576;2022-08-19T08:11:03;23.52;;;21.05;;
11121;SDS011;5615;49.304;10.576;2022-08-19T08:13:32;25.25;;;22.65;;
11121;SDS011;5615;49.304;10.576;2022-08-19T08:16:00;25.92;;;23.42;;
11121;SDS011;5615;49.304;10.576;2022-08-19T08:18:27;24.80;;;22.30;;
11121;SDS011;5615;49.304;10.576;2022-08-19T08:20:54;28.77;;;25.65;;
11121;SDS011;5615;49.304;10.576;2022-08-19T08:23:21;27.17;;;24.27;;
11121;SDS011;5615;49.304;10.576;2022-08-19T08:25:50;25.60;;;23.10;;
11121;SDS011;5615;49.304;10.576;2022-08-19T08:28:18;25.73;;;22.92;;
11121;SDS011;5615;49.304;10.576;2022-08-19T08:30:47;28.38;;;25.30;;
11121;SDS011;5615;49.304;10.576;2022-08-19T08:33:17;28.52;;;25.15;;
11121;SDS011;5615;49.304;10.576;2022-08-19T08:35:46;27.30;;;24.38;;
11121;SDS011;5615;49.304;10.576;2022-08-19T08:38:13;25.42;;;22.70;;
11121;SDS011;5615;49.304;10.576;2022-08-19T08:40:43;26.63;;;23.90;;
11121;SDS011;5615;49.304;10.576;2022-08-19T08:43:14;25.40;;;22.63;;
11121;SDS011;5615;49.304;10.576;2022-08-19T08:45:59;25.52;;;22.73;;
11121;SDS011;5615;49.304;10.576;2022-08-19T08:48:30;26.70;;;23.90;;
11121;SDS011;5615;49.304;10.576;2022-08-19T08:51:03;25.73;;;23.00;;
11121;SDS011;5615;49.304;10.576;2022-08-19T08:53:33;26.45;;;23.63;;
11121;SDS011;5615;49.304;10.576;2022-08-19T08:56:03;27.55;;;23.90;;
11121;SDS011;5615;49.304;10.576;2022-08-19T08:58:32;27.45;;;22.83;;
11121;SDS011;5615;49.304;10.576;2022-08-19T09:01:12;26.50;;;23.67;;
11121;SDS011;5615;49.304;10.576;2022-08-19T09:03:40;24.52;;;22.00;;
11121;SDS011;5615;49.304;10.576;2022-08-19T09:06:11;23.30;;;21.10;;
11121;SDS011;5615;49.304;10.576;2022-08-19T09:08:46;24.95;;;22.45;;
11121;SDS011;5615;49.304;10.576;2022-08-19T09:11:19;27.45;;;22.80;;
11121;SDS011;5615;49.304;10.576;2022-08-19T09:13:55;24.38;;;21.55;;
11121;SDS011;5615;49.304;10.576;2022-08-19T09:16:34;24.52;;;22.13;;
11121;SDS011;5615;49.304;10.576;2022-08-19T09:19:04;24.30;;;21.90;;
11121;SDS011;5615;49.304;10.576;2022-08-19T09:21:32;25.25;;;22.75;;
11121;SDS011;5615;49.304;10.576;2022-08-19T09:23:59;24.98;;;22.17;;
11121;SDS011;5615;49.304;10.576;2022-08-19T09:26:26;23.73;;;21.25;;
11121;SDS011;5615;49.304;10.576;2022-08-19T09:28:54;25.35;;;22.45;;
11121;SDS011;5615;49.304;10.576;2022-08-19T09:31:23;24.30;;;21.92;;
11121;SDS011;5615;49.304;10.576;2022-08-19T09:33:53;22.75;;;20.30;;
11121;SDS011;5615;49.304;10.576;2022-08-19T09:36:22;23.60;;;21.25;;
11121;SDS011;5615;49.304;10.576;2022-08-19T09:38:51;23.60;;;21.23;;
11121;SDS011;5615;49.304;10.576;2022-08-19T09:41:19;22.80;;;20.50;;
11121;SDS011;5615;49.304;10.576;2022-08-19T09:43:49;24.30;;;21.80;;
11121;SDS011;5615;49.304;10.576;2022-08-19T09:46:19;23.58;;;21.08;;
11121;SDS011;5615;49.304;10.576;2022-08-19T09:48:46;22.63;;;20.35;;
11121;SDS011;5615;49.304;10.576;2022-08-19T09:51:17;22.80;;;20.50;;
11121;SDS011;5615;49.304;10.576;2022-08-19T09:53:46;22.85;;;20.75;;
11121;SDS011;5615;49.304;10.576;2022-08-19T09:56:15;21.35;;;19.25;;
11121;SDS011;5615;49.304;10.576;2022-08-19T09:58:43;21.30;;;19.38;;
11121;SDS011;5615;49.304;10.576;2022-08-19T10:01:15;21.33;;;19.23;;
11121;SDS011;5615;49.304;10.576;2022-08-19T10:03:46;20.60;;;18.52;;
11121;SDS011;5615;49.304;10.576;2022-08-19T10:06:14;21.33;;;19.23;;
11121;SDS011;5615;49.304;10.576;2022-08-19T10:08:42;21.20;;;19.27;;
11121;SDS011;5615;49.304;10.576;2022-08-19T10:11:10;21.27;;;19.02;;
11121;SDS011;5615;49.304;10.576;2022-08-19T10:13:36;21.20;;;19.20;;
11121;SDS011;5615;49.304;10.576;2022-08-19T10:16:04;21.83;;;19.70;;
11121;SDS011;5615;49.304;10.576;2022-08-19T10:18:32;21.45;;;19.33;;
11121;SDS011;5615;49.304;10.576;2022-08-19T10:21:04;20.63;;;18.63;;
11121;SDS011;5615;49.304;10.576;2022-08-19T10:23:34;21.08;;;19.05;;
11121;SDS011;5615;49.304;10.576;2022-08-19T10:26:03;20.75;;;18.70;;
11121;SDS011;5615;49.304;10.576;2022-08-19T10:28:31;22.85;;;19.63;;
11121;SDS011;5615;49.304;10.576;2022-08-19T10:31:02;21.55;;;19.42;;
11121;SDS011;5615;49.304;10.576;2022-08-19T10:33:31;20.98;;;18.88;;
11121;SDS011;5615;49.304;10.576;2022-08-19T10:35:59;21.05;;;19.05;;
11121;SDS011;5615;49.304;10.576;2022-08-19T10:38:26;20.88;;;18.75;;
11121;SDS011;5615;49.304;10.576;2022-08-19T10:40:53;21.00;;;19.00;;
11121;SDS011;5615;49.304;10.576;2022-08-19T10:43:21;21.02;;;18.88;;
11121;SDS011;5615;49.304;10.576;2022-08-19T10:45:51;21.67;;;19.58;;
11121;SDS011;5615;49.304;10.576;2022-08-19T10:48:19;21.45;;;19.45;;
11121;SDS011;5615;49.304;10.576;2022-08-19T10:50:46;22.75;;;19.25;;
11121;SDS011;5615;49.304;10.576;2022-08-19T10:53:36;21.52;;;19.33;;
11121;SDS011;5615;49.304;10.576;2022-08-19T10:56:02;21.23;;;18.85;;
11121;SDS011;5615;49.304;10.576;2022-08-19T10:58:48;21.92;;;19.77;;
11121;SDS011;5615;49.304;10.576;2022-08-19T11:01:15;20.98;;;18.75;;
11121;SDS011;5615;49.304;10.576;2022-08-19T11:03:41;20.45;;;18.27;;
11121;SDS011;5615;49.304;10.576;2022-08-19T11:06:10;21.15;;;19.05;;
11121;SDS011;5615;49.304;10.576;2022-08-19T11:08:37;22.17;;;19.13;;
11121;SDS011;5615;49.304;10.576;2022-08-19T11:11:05;20.58;;;18.63;;
11121;SDS011;5615;49.304;10.576;2022-08-19T11:13:34;21.13;;;18.95;;
11121;SDS011;5615;49.304;10.576;2022-08-19T11:16:05;20.90;;;18.67;;
11121;SDS011;5615;49.304;10.576;2022-08-19T11:18:35;23.55;;;19.20;;
11121;SDS011;5615;49.304;10.576;2022-08-19T11:21:10;21.08;;;19.17;;
11121;SDS011;5615;49.304;10.576;2022-08-19T11:23:41;21.05;;;19.02;;
11121;SDS011;5615;49.304;10.576;2022-08-19T11:26:09;21.25;;;18.15;;
11121;SDS011;5615;49.304;10.576;2022-08-19T11:28:36;20.17;;;18.17;;
11121;SDS011;5615;49.304;10.576;2022-08-19T11:31:04;22.42;;;20.15;;
11121;SDS011;5615;49.304;10.576;2022-08-19T11:33:36;21.35;;;19.08;;
11121;SDS011;5615;49.304;10.576;2022-08-19T11:36:03;21.30;;;19.25;;
11121;SDS011;5615;49.304;10.576;2022-08-19T11:38:30;20.85;;;18.95;;
11121;SDS011;5615;49.304;10.576;2022-08-19T11:40:57;23.52;;;20.13;;
11121;SDS011;5615;49.304;10.576;2022-08-19T11:43:25;22.77;;;20.50;;
11121;SDS011;5615;49.304;10.576;2022-08-19T11:45:53;23.30;;;20.95;;
11121;SDS011;5615;49.304;10.576;2022-08-19T11:48:22;23.80;;;21.40;;
11121;SDS011;5615;49.304;10.576;2022-08-19T11:50:50;22.95;;;20.50;;
11121;SDS011;5615;49.304;10.576;2022-08-19T11:53:20;22.60;;;20.40;;
11121;SDS011;5615;49.304;10.576;2022-08-19T11:55:47;23.50;;;21.30;;
11121;SDS011;5615;49.304;10.576;2022-08-19T11:58:14;23.40;;;20.92;;
11121;SDS011;5615;49.304;10.576;2022-08-19T12:00:43;23.08;;;20.83;;
11121;SDS011;5615;49.304;10.576;2022-08-19T12:03:10;22.40;;;20.33;;
11121;SDS011;5615;49.304;10.576;2022-08-19T12:05:39;21.58;;;19.45;;
11121;SDS011;5615;49.304;10.576;2022-08-19T12:08:07;20.52;;;18.63;;
11121;SDS011;5615;49.304;10.576;2022-08-19T12:10:34;20.65;;;18.52;;
11121;SDS011;5615;49.304;10.576;2022-08-19T12:13:01;19.15;;;17.35;;
11121;SDS011;5615;49.304;10.576;2022-08-19T12:15:28;18.95;;;17.25;;
11121;SDS011;5615;49.304;10.576;2022-08-19T12:17:56;18.38;;;16.63;;
11121;SDS011;5615;49.304;10.576;2022-08-19T12:20:23;18.42;;;16.63;;
11121;SDS011;5615;49.304;10.576;2022-08-19T12:22:52;18.77;;;16.98;;
11121;SDS011;5615;49.304;10.576;2022-08-19T12:25:19;17.95;;;16.45;;
11121;SDS011;5615;49.304;10.576;2022-08-19T12:27:46;18.25;;;16.55;;
11121;SDS011;5615;49.304;10.576;2022-08-19T12:30:14;20.23;;;18.23;;
11121;SDS011;5615;49.304;10.576;2022-08-19T12:32:40;20.13;;;18.33;;
11121;SDS011;5615;49.304;10.576;2022-08-19T12:35:07;21.95;;;19.73;;
11121;SDS011;5615;49.304;10.576;2022-08-19T12:37:36;22.42;;;20.30;;
11121;SDS011;5615;49.304;10.576;2022-08-19T12:40:05;23.42;;;21.13;;
11121;SDS011;5615;49.304;10.576;2022-08-19T12:42:33;22.90;;;20.90;;
11121;SDS011;5615;49.304;10.576;2022-08-19T12:45:00;23.15;;;20.75;;
11121;SDS011;5615;49.304;10.576;2022-08-19T12:47:26;21.88;;;19.98;;
11121;SDS011;5615;49.304;10.576;2022-08-19T12:49:53;23.98;;;21.80;;
11121;SDS011;5615;49.304;10.576;2022-08-19T12:52:22;24.10;;;21.58;;
11121;SDS011;5615;49.304;10.576;2022-08-19T12:54:49;22.42;;;20.42;;
11121;SDS011;5615;49.304;10.576;2022-08-19T12:57:17;23.05;;;20.63;;
11121;SDS011;5615;49.304;10.576;2022-08-19T12:59:44;22.40;;;20.10;;
11121;SDS011;5615;49.304;10.576;2022-08-19T13:02:10;23.92;;;21.40;;
11121;SDS011;5615;49.304;10.576;2022-08-19T13:04:37;21.98;;;19.40;;
11121;SDS011;5615;49.304;10.576;2022-08-19T13:07:06;21.67;;;19.40;;
11121;SDS011;5615;49.304;10.576;2022-08-19T13:09:33;20.25;;;17.98;;
11121;SDS011;5615;49.304;10.576;2022-08-19T13:12:01;21.73;;;19.52;;
11121;SDS011;5615;49.304;10.576;2022-08-19T13:14:29;23.58;;;21.08;;
11121;SDS011;5615;49.304;10.576;2022-08-19T13:16:56;22.55;;;20.33;;
11121;SDS011;5615;49.304;10.576;2022-08-19T13:19:23;22.45;;;20.15;;
11121;SDS011;5615;49.304;10.576;2022-08-19T13:21:50;24.17;;;21.63;;
11121;SDS011;5615;49.304;10.576;2022-08-19T13:24:17;23.40;;;21.13;;
11121;SDS011;5615;49.304;10.576;2022-08-19T13:26:44;24.67;;;22.38;;
11121;SDS011;5615;49.304;10.576;2022-08-19T13:29:10;24.60;;;22.17;;
11121;SDS011;5615;49.304;10.576;2022-08-19T13:31:56;25.05;;;22.50;;
11121;SDS011;5615;49.304;10.576;2022-08-19T13:34:41;25.15;;;22.75;;
11121;SDS011;5615;49.304;10.576;2022-08-19T13:37:07;23.58;;;21.45;;
11121;SDS011;5615;49.304;10.576;2022-08-19T13:39:36;24.02;;;21.63;;
11121;SDS011;5615;49.304;10.576;2022-08-19T13:42:03;21.85;;;19.80;;
11121;SDS011;5615;49.304;10.576;2022-08-19T13:44:31;20.88;;;18.98;;
11121;SDS011;5615;49.304;10.576;2022-08-19T13:47:01;20.40;;;18.60;;
11121;SDS011;5615;49.304;10.576;2022-08-19T13:49:31;20.67;;;18.60;;
11121;SDS011;5615;49.304;10.576;2022-08-19T13:51:59;20.75;;;18.65;;
11121;SDS011;5615;49.304;10.576;2022-08-19T13:54:26;19.67;;;17.77;;
11121;SDS011;5615;49.304;10.576;2022-08-19T13:56:52;19.00;;;17.17;;
11121;SDS011;5615;49.304;10.576;2022-08-19T13:59:19;18.95;;;17.17;;
11121;SDS011;5615;49.304;10.576;2022-08-19T14:01:46;20.40;;;18.33;;
11121;SDS011;5615;49.304;10.576;2022-08-19T14:04:14;19.50;;;17.70;;
11121;SDS011;5615;49.304;10.576;2022-08-19T14:06:41;17.45;;;15.85;;
11121;SDS011;5615;49.304;10.576;2022-08-19T14:09:07;18.88;;;16.88;;
11121;SDS011;5615;49.304;10.576;2022-08-19T14:11:34;19.13;;;16.48;;
11121;SDS011;5615;49.304;10.576;2022-08-19T14:14:00;19.92;;;17.98;;
11121;SDS011;5615;49.304;10.576;2022-08-19T14:16:27;20.40;;;18.48;;
11121;SDS011;5615;49.304;10.576;2022-08-19T14:18:55;23.17;;;17.70;;
11121;SDS011;5615;49.304;10.576;2022-08-19T14:21:23;23.48;;;18.48;;
11121;SDS011;5615;49.304;10.576;2022-08-19T14:23:51;23.25;;;18.83;;
11121;SDS011;5615;49.304;10.576;2022-08-19T14:26:19;21.27;;;18.92;;
11121;SDS011;5615;49.304;10.576;2022-08-19T14:28:47;21.90;;;19.60;;
11121;SDS011;5615;49.304;10.576;2022-08-19T14:31:14;21.95;;;19.27;;